Terminal Aerodrome Forecast
Issued by NWS

Home | Current Version | Previous Version | Text Only | Print | Product List | Glossary On
Versions: 1 2 3 4 5 6 7 8 9 10 11 12 13 14 15 16
000
FTAK31 PAFA 202040 AAB
TAFAOR
TAF AMD
PAOR 202040Z 2021/2118 00000KT 6SM BR SCT002 BKN011 OVC020
     FM202200 31005KT 6SM -SN BR SCT010 BKN020=

USA.gov is the U.S. government's official web portal to all federal, state and local government web resources and services.